Terminal Aerodrome Forecast
Issued by NWS Shreveport, LA

Home | Current Version | Previous Version | Text Only | Print | Product List | Glossary On
Versions: 1 2 3 4 5 6 7 8 9 10 11 12 13 14 15 16 17 18 19
000
FTUS44 KSHV 281805 AAA
TAFTXK
TAF AMD
KTXK 281805Z 2818/2918 20009KT P6SM VCTS SCT035CB SCT080 BKN100
      TEMPO 2818/2820 VRB15G25KT 5SM -TSRA BKN025CB OVC035
     FM290200 15004KT P6SM SCT050 BKN100
     FM291200 18004KT 5SM BR FEW010 BKN035 BKN100
     FM291500 20007KT P6SM BKN020 BKN050 OVC100=

USA.gov is the U.S. government's official web portal to all federal, state and local government web resources and services.